Lamont, Kansas
Current Conditions -  °F | °C
As of 7:53 AM on Friday 31 Oct 2014 (Local Time) from KEMP Reporting Station
Broken Clouds Broken Clouds  
Wind Chill: 28°   Ceiling: 2500
Heat Index: 37°   Visibility: 10mi
Dew Point: 28°   Wind: 15mph
Humidity: 70%   Direction: 360°N
Pressure: 30.45"   Gusts: 26mph
Location:  38.11°N, 96.03°W
Report Text: KEMP 311253Z AUTO 36013G23KT 10SM BKN025 03/M02 A3045 RMK AO2 SLP316 T00281022
Loading
Personal Weather Stations






























Interactive Weather Map
Tropical Storm Tracking
New forecast layout! Learn more

10-Day Weather Forecast

Advertisements
Track Severe Weather on mobile